Costa do Saumpe, Brazil
Current Conditions -  °F | °C
As of 10:00 AM on Sunday 23 Nov 2014 (Local Time) from SBSV Reporting Station
Broken Clouds Broken Clouds  
Wind Chill: 81°   Ceiling: 1500
Heat Index: 85°   Visibility: 6mi
Dew Point: 72°   Wind: 2mph
Humidity: 74%   Direction: 20°NNE
Pressure: 29.94"   Gusts: NA
Location:  12.53°S, 38.3°W
Report Text: SBSV 231300Z 02002KT 9999 BKN015 FEW020TCU BKN070 27/22 Q1014
Loading
Personal Weather Stations






























Interactive Weather Map New forecast layout! Learn more

10-Day Weather Forecast

Advertisements
Track Severe Weather on mobile